createdAt,value
2023-01-31T00:00:16.747Z,7.49
2023-01-31T00:02:45.350Z,7.42
2023-01-31T00:05:15.322Z,6.95
2023-01-31T00:07:43.885Z,7.54
2023-01-31T00:10:13.146Z,7.47
2023-01-31T00:12:41.747Z,6.85
2023-01-31T00:15:13.532Z,7.43
2023-01-31T00:17:42.081Z,7.66
2023-01-31T00:20:12.489Z,7.66
2023-01-31T00:22:42.395Z,6.96
2023-01-31T00:25:11.306Z,6.98
2023-01-31T00:27:39.820Z,7.21
2023-01-31T00:30:10.620Z,7.39
2023-01-31T00:32:39.201Z,7.14
2023-01-31T00:35:08.445Z,7.48
2023-01-31T00:37:37.492Z,7.58
2023-01-31T00:40:08.804Z,7.68
2023-01-31T00:42:37.949Z,7.76
2023-01-31T00:45:08.158Z,6.60
2023-01-31T00:47:37.043Z,6.51
2023-01-31T00:50:06.974Z,7.42
2023-01-31T00:52:36.118Z,5.54
2023-01-31T00:55:07.056Z,6.33
2023-01-31T00:57:36.048Z,6.31
2023-01-31T01:00:05.752Z,5.59
2023-01-31T01:02:34.854Z,6.71
2023-01-31T01:05:03.482Z,6.05
2023-01-31T01:07:32.909Z,6.68
2023-01-31T01:10:01.568Z,7.10
2023-01-31T01:12:32.003Z,6.57
2023-01-31T01:15:00.657Z,6.94
2023-01-31T01:17:29.235Z,6.80
2023-01-31T01:19:57.792Z,7.37
2023-01-31T01:22:26.295Z,7.19
2023-01-31T01:24:54.840Z,6.94
2023-01-31T01:27:23.376Z,6.68
2023-01-31T01:29:53.294Z,7.05
2023-01-31T01:32:22.106Z,7.37
2023-01-31T01:34:50.693Z,7.40
2023-01-31T01:37:21.095Z,7.46
2023-01-31T01:39:50.401Z,7.62
2023-01-31T01:42:20.503Z,7.72
2023-01-31T01:44:53.509Z,7.74
2023-01-31T01:47:33.304Z,7.71
2023-01-31T01:50:05.896Z,7.17
2023-01-31T01:52:39.467Z,7.52
2023-01-31T01:55:17.123Z,7.72
2023-01-31T01:57:48.862Z,7.23
2023-01-31T02:00:23.000Z,7.24
2023-01-31T02:02:54.667Z,7.04
2023-01-31T02:05:27.377Z,7.30
2023-01-31T02:07:57.140Z,7.27
2023-01-31T02:10:29.174Z,7.47
2023-01-31T02:12:57.986Z,7.28
2023-01-31T02:15:28.209Z,7.20
2023-01-31T02:17:56.882Z,7.37
2023-01-31T02:20:57.673Z,7.42
2023-01-31T02:23:53.824Z,7.09
2023-01-31T02:26:56.504Z,7.47
2023-01-31T02:29:35.605Z,7.45
2023-01-31T02:32:46.865Z,7.47
2023-01-31T02:35:25.726Z,7.36
2023-01-31T02:38:13.140Z,7.46
2023-01-31T02:40:55.672Z,7.22
2023-01-31T02:43:56.382Z,7.30
2023-01-31T02:46:29.937Z,6.99
2023-01-31T02:49:08.439Z,7.31
2023-01-31T02:51:42.961Z,7.44
2023-01-31T02:54:16.840Z,7.56
2023-01-31T02:56:47.041Z,6.98
2023-01-31T02:59:22.023Z,7.05
2023-01-31T03:01:57.526Z,7.06
2023-01-31T03:04:31.840Z,6.72
2023-01-31T03:07:07.447Z,6.16
2023-01-31T03:09:49.677Z,6.34
2023-01-31T03:12:53.642Z,6.97
2023-01-31T03:15:50.518Z,6.41
2023-01-31T03:18:25.119Z,6.38
2023-01-31T03:21:01.951Z,6.64
2023-01-31T03:23:33.502Z,6.79
2023-01-31T03:26:04.542Z,6.72
2023-01-31T03:28:37.140Z,7.22
2023-01-31T03:31:11.937Z,7.42
2023-01-31T03:33:45.485Z,6.16
2023-01-31T03:36:25.862Z,6.58
2023-01-31T03:39:10.815Z,6.73
2023-01-31T03:41:49.285Z,6.29
2023-01-31T03:44:25.866Z,6.30
2023-01-31T03:47:00.694Z,6.49
2023-01-31T03:49:31.070Z,6.27
2023-01-31T03:52:05.923Z,6.19
2023-01-31T03:54:40.395Z,6.41
2023-01-31T03:57:17.054Z,6.84
2023-01-31T03:59:48.875Z,6.76
2023-01-31T04:02:19.909Z,6.82
2023-01-31T04:04:53.000Z,7.02
2023-01-31T04:07:22.975Z,6.74
2023-01-31T04:09:51.634Z,6.62
2023-01-31T04:12:20.272Z,5.25
2023-01-31T04:14:48.810Z,6.04
2023-01-31T04:17:17.372Z,6.57
2023-01-31T04:19:45.957Z,6.84
2023-01-31T04:22:14.541Z,6.68
2023-01-31T04:24:44.495Z,6.91
2023-01-31T04:27:13.046Z,6.94
2023-01-31T04:29:41.613Z,5.76
2023-01-31T04:32:10.681Z,6.67
2023-01-31T04:34:39.269Z,7.03
2023-01-31T04:37:07.902Z,7.21
2023-01-31T04:39:36.728Z,6.13
2023-01-31T04:42:06.797Z,6.88
2023-01-31T04:44:35.441Z,6.63
2023-01-31T04:47:04.057Z,6.23
2023-01-31T04:49:33.014Z,6.01
2023-01-31T04:52:01.607Z,5.94
2023-01-31T04:54:30.145Z,5.30
2023-01-31T04:56:58.757Z,6.03
2023-01-31T04:59:28.693Z,5.78
2023-01-31T05:01:57.663Z,6.43
2023-01-31T05:04:26.483Z,6.04
2023-01-31T05:06:55.069Z,6.07
2023-01-31T05:09:24.977Z,5.99
2023-01-31T05:11:53.597Z,6.18
2023-01-31T05:14:22.131Z,6.79
2023-01-31T05:16:52.119Z,6.40
2023-01-31T05:19:20.660Z,6.34
2023-01-31T05:21:59.351Z,6.60
2023-01-31T05:24:29.567Z,5.94
2023-01-31T05:27:00.630Z,6.09
2023-01-31T05:29:30.527Z,6.00
2023-01-31T05:32:03.706Z,6.40
2023-01-31T05:34:33.362Z,6.72
2023-01-31T05:37:02.662Z,6.54
2023-01-31T05:39:32.303Z,6.56
2023-01-31T05:42:01.043Z,6.57
2023-01-31T05:44:29.724Z,5.94
2023-01-31T05:47:01.421Z,6.26
2023-01-31T05:49:33.391Z,5.51
2023-01-31T05:52:02.193Z,5.56
2023-01-31T05:54:31.368Z,6.05
2023-01-31T05:57:00.301Z,6.22
2023-01-31T05:59:31.224Z,6.36
2023-01-31T06:02:01.238Z,6.72
2023-01-31T06:04:29.848Z,6.29
2023-01-31T06:06:59.029Z,5.66
2023-01-31T06:09:27.676Z,5.74
2023-01-31T06:11:56.235Z,6.22
2023-01-31T06:14:25.125Z,5.89
2023-01-31T06:16:53.754Z,6.69
2023-01-31T06:19:25.432Z,7.04
2023-01-31T06:21:54.079Z,7.18
2023-01-31T06:24:22.669Z,7.23
2023-01-31T06:26:51.297Z,7.37
2023-01-31T06:29:19.864Z,7.38
2023-01-31T06:31:48.488Z,7.30
2023-01-31T06:34:17.135Z,6.68
2023-01-31T06:36:47.162Z,6.79
2023-01-31T06:39:16.240Z,6.10
2023-01-31T06:41:44.888Z,5.91
2023-01-31T06:44:13.424Z,5.55
2023-01-31T06:46:41.985Z,6.16
2023-01-31T06:49:10.534Z,6.27
2023-01-31T06:51:39.117Z,5.82
2023-01-31T06:54:09.059Z,5.68
2023-01-31T06:56:37.616Z,5.38
2023-01-31T06:59:06.286Z,5.22
2023-01-31T07:01:34.996Z,5.28
2023-01-31T07:04:03.598Z,5.62
2023-01-31T07:06:32.598Z,5.64
2023-01-31T07:09:01.246Z,5.25
2023-01-31T07:11:31.517Z,5.10
2023-01-31T07:14:00.212Z,5.66
2023-01-31T07:16:28.828Z,6.00
2023-01-31T07:18:57.756Z,5.48
2023-01-31T07:21:26.835Z,5.58
2023-01-31T07:23:55.402Z,5.59
2023-01-31T07:26:24.058Z,6.22
2023-01-31T07:28:54.131Z,5.85
2023-01-31T07:31:22.746Z,5.73
2023-01-31T07:33:51.405Z,6.29
2023-01-31T07:36:26.364Z,5.99
2023-01-31T07:38:56.761Z,5.87
2023-01-31T07:41:25.818Z,5.35
2023-01-31T07:43:55.814Z,5.67
2023-01-31T07:46:24.421Z,6.10
2023-01-31T07:48:53.770Z,6.69
2023-01-31T07:51:22.319Z,6.45
2023-01-31T07:53:51.048Z,5.60
2023-01-31T07:56:21.784Z,6.10
2023-01-31T07:58:51.559Z,6.05
2023-01-31T08:01:41.226Z,5.62
2023-01-31T08:04:21.078Z,6.63
2023-01-31T08:06:54.344Z,6.29
2023-01-31T08:09:22.977Z,5.71
2023-01-31T08:11:52.028Z,6.06
2023-01-31T08:14:25.343Z,6.35
2023-01-31T08:16:55.548Z,6.30
2023-01-31T08:19:24.454Z,6.07
2023-01-31T08:21:53.091Z,6.55
2023-01-31T08:24:21.676Z,6.01
2023-01-31T08:26:50.278Z,5.62
2023-01-31T08:29:18.891Z,5.86
2023-01-31T08:31:49.776Z,6.32
2023-01-31T08:34:21.415Z,6.03
2023-01-31T08:36:50.099Z,6.15
2023-01-31T08:39:18.861Z,6.22
2023-01-31T08:41:47.984Z,6.54
2023-01-31T08:44:16.615Z,6.22
2023-01-31T08:46:45.767Z,6.08
2023-01-31T08:49:15.260Z,5.44
2023-01-31T08:51:45.273Z,6.13
2023-01-31T08:54:13.896Z,5.96
2023-01-31T08:56:42.464Z,6.22
2023-01-31T08:59:12.729Z,5.78
2023-01-31T09:01:42.496Z,5.85
2023-01-31T09:04:11.095Z,5.77
2023-01-31T09:06:39.990Z,5.70
2023-01-31T09:09:11.034Z,6.29
2023-01-31T09:11:39.733Z,5.90
2023-01-31T09:14:08.367Z,5.51
2023-01-31T09:16:36.919Z,6.31
2023-01-31T09:19:05.558Z,6.47
2023-01-31T09:21:34.120Z,5.63
2023-01-31T09:24:03.979Z,6.16
2023-01-31T09:26:34.452Z,6.40
2023-01-31T09:29:03.265Z,6.19
2023-01-31T09:31:32.306Z,6.38
2023-01-31T09:34:01.008Z,6.27
2023-01-31T09:36:30.188Z,5.75
2023-01-31T09:38:59.502Z,5.66
2023-01-31T09:41:34.799Z,6.16
2023-01-31T09:44:06.724Z,5.91
2023-01-31T09:46:40.655Z,5.67
2023-01-31T09:49:17.049Z,5.92
2023-01-31T09:51:46.312Z,5.43
2023-01-31T09:54:21.859Z,5.79
2023-01-31T09:57:02.078Z,5.55
2023-01-31T09:59:38.709Z,5.93
2023-01-31T10:02:27.895Z,6.13
2023-01-31T10:05:13.806Z,6.24
2023-01-31T10:07:51.232Z,6.19
2023-01-31T10:10:31.231Z,5.37
2023-01-31T10:13:05.779Z,5.18
2023-01-31T10:15:40.900Z,5.72
2023-01-31T10:18:15.208Z,5.67
2023-01-31T10:20:50.254Z,5.84
2023-01-31T10:23:26.533Z,6.10
2023-01-31T10:26:00.511Z,5.86
2023-01-31T10:28:36.575Z,6.16
2023-01-31T10:31:13.259Z,6.08
2023-01-31T10:33:50.595Z,6.05
2023-01-31T10:36:27.991Z,6.42
2023-01-31T10:39:03.904Z,5.97
2023-01-31T10:41:42.276Z,6.84
2023-01-31T10:44:22.966Z,6.19
2023-01-31T10:46:52.616Z,6.19
2023-01-31T10:49:25.208Z,6.32
2023-01-31T10:52:13.371Z,6.74
2023-01-31T10:54:54.760Z,6.53
2023-01-31T10:57:24.040Z,6.17
2023-01-31T10:59:56.251Z,6.42
2023-01-31T11:02:27.955Z,6.38
2023-01-31T11:04:58.262Z,6.34
2023-01-31T11:07:30.146Z,6.11
2023-01-31T11:09:58.779Z,6.26
2023-01-31T11:12:42.534Z,6.08
2023-01-31T11:15:20.289Z,6.12
2023-01-31T11:17:49.657Z,6.17
2023-01-31T11:20:25.018Z,6.36
2023-01-31T11:22:54.423Z,6.30
2023-01-31T11:25:25.600Z,6.16
2023-01-31T11:27:58.662Z,6.09
2023-01-31T11:30:32.192Z,6.29
2023-01-31T11:33:01.118Z,6.34
2023-01-31T11:35:31.585Z,6.11
2023-01-31T11:38:02.213Z,6.12
2023-01-31T11:40:33.673Z,6.12
2023-01-31T11:43:04.238Z,6.60
2023-01-31T11:45:37.320Z,6.67
2023-01-31T11:48:12.300Z,6.41
2023-01-31T11:50:44.342Z,6.45
2023-01-31T11:53:20.302Z,6.54
2023-01-31T11:55:50.751Z,6.26
2023-01-31T11:58:22.827Z,6.68
2023-01-31T12:00:57.804Z,6.49
2023-01-31T12:03:27.202Z,6.51
2023-01-31T12:06:02.570Z,6.72
2023-01-31T12:08:34.246Z,6.21
2023-01-31T12:11:06.371Z,6.38
2023-01-31T12:13:47.821Z,6.26
2023-01-31T12:16:22.380Z,6.20
2023-01-31T12:19:01.028Z,6.51
2023-01-31T12:21:48.550Z,6.48
2023-01-31T12:24:34.715Z,6.38
2023-01-31T12:27:12.507Z,6.05
2023-01-31T12:29:58.214Z,6.38
2023-01-31T12:32:41.227Z,6.58
2023-01-31T12:35:53.870Z,6.56
2023-01-31T12:38:48.487Z,6.37
2023-01-31T12:41:27.842Z,6.24
2023-01-31T12:44:21.684Z,6.32
2023-01-31T12:47:11.342Z,6.40
2023-01-31T12:49:58.529Z,6.78
2023-01-31T12:52:37.959Z,6.36
2023-01-31T12:55:20.842Z,6.34
2023-01-31T12:57:58.507Z,6.40
2023-01-31T13:00:35.155Z,6.58
2023-01-31T13:03:20.285Z,6.67
2023-01-31T13:05:58.874Z,6.73
2023-01-31T13:08:30.735Z,6.48
2023-01-31T13:11:03.713Z,6.36
2023-01-31T13:13:37.301Z,6.64
2023-01-31T13:16:13.831Z,6.66
2023-01-31T13:18:44.300Z,6.57
2023-01-31T13:21:18.958Z,6.82
2023-01-31T13:23:51.567Z,7.17
2023-01-31T13:26:23.214Z,6.99
2023-01-31T13:28:58.263Z,6.82
2023-01-31T13:31:29.587Z,7.30
2023-01-31T13:34:06.472Z,7.84
2023-01-31T13:36:44.551Z,7.21
2023-01-31T13:39:20.755Z,7.62
2023-01-31T13:41:49.498Z,6.85
2023-01-31T13:44:18.450Z,6.65
2023-01-31T13:46:58.018Z,6.35
2023-01-31T13:49:30.805Z,6.84
2023-01-31T13:52:03.193Z,6.89
2023-01-31T13:54:37.054Z,6.69
2023-01-31T13:57:06.697Z,6.67
2023-01-31T13:59:38.637Z,6.34
2023-01-31T14:02:18.354Z,6.53
2023-01-31T14:04:47.983Z,6.75
2023-01-31T14:07:21.589Z,6.47
2023-01-31T14:10:32.675Z,6.81
2023-01-31T14:13:37.924Z,6.71
2023-01-31T14:16:38.913Z,6.57
2023-01-31T14:19:32.076Z,6.26
2023-01-31T14:22:07.047Z,6.28
2023-01-31T14:25:12.480Z,6.27
2023-01-31T14:28:04.436Z,6.59
2023-01-31T14:30:43.043Z,6.79
2023-01-31T14:33:30.375Z,6.75
2023-01-31T14:36:41.483Z,7.09
2023-01-31T14:39:42.130Z,7.01
2023-01-31T14:42:36.195Z,7.14
2023-01-31T14:45:24.206Z,7.00
2023-01-31T14:48:16.469Z,6.92
2023-01-31T14:50:58.721Z,7.11
2023-01-31T14:53:50.130Z,6.38
2023-01-31T14:56:35.776Z,6.81
2023-01-31T14:59:06.249Z,6.66
2023-01-31T15:01:38.234Z,6.74
2023-01-31T15:04:07.740Z,6.56
2023-01-31T15:06:40.941Z,6.59
2023-01-31T15:09:35.134Z,6.76
2023-01-31T15:12:07.861Z,6.71
2023-01-31T15:14:42.143Z,6.80
2023-01-31T15:17:33.714Z,6.96
2023-01-31T15:20:16.094Z,7.25
2023-01-31T15:22:45.634Z,7.32
2023-01-31T15:25:27.193Z,7.35
2023-01-31T15:27:57.875Z,6.90
2023-01-31T15:30:31.110Z,7.19
2023-01-31T15:33:06.543Z,7.23
2023-01-31T15:35:44.655Z,6.94
2023-01-31T15:38:23.514Z,6.68
2023-01-31T15:41:18.349Z,6.76
2023-01-31T15:43:47.829Z,6.61
2023-01-31T15:46:23.958Z,6.63
2023-01-31T15:48:52.773Z,6.89
2023-01-31T15:51:22.291Z,7.05
2023-01-31T15:54:01.421Z,6.74
2023-01-31T15:56:31.339Z,6.89
2023-01-31T15:59:00.462Z,7.03
2023-01-31T16:01:31.782Z,6.80
2023-01-31T16:04:01.687Z,7.06
2023-01-31T16:06:34.262Z,6.98
2023-01-31T16:09:04.984Z,7.23
2023-01-31T16:11:35.233Z,7.06
2023-01-31T16:14:06.304Z,7.20
2023-01-31T16:16:38.233Z,6.98
2023-01-31T16:19:07.741Z,7.28
2023-01-31T16:21:40.185Z,7.99
2023-01-31T16:24:16.310Z,8.32
2023-01-31T16:26:55.949Z,7.69
2023-01-31T16:29:28.273Z,7.37
2023-01-31T16:31:58.264Z,7.40
2023-01-31T16:34:29.228Z,7.18
2023-01-31T16:37:01.969Z,7.29
2023-01-31T16:39:38.402Z,7.02
2023-01-31T16:42:09.565Z,7.11
2023-01-31T16:44:43.160Z,7.15
2023-01-31T16:47:35.411Z,6.98
2023-01-31T16:50:41.818Z,6.90
2023-01-31T16:53:26.402Z,6.95
2023-01-31T16:56:23.107Z,7.03
2023-01-31T16:58:54.596Z,7.21
2023-01-31T17:01:26.663Z,7.32
2023-01-31T17:04:20.500Z,7.60
2023-01-31T17:06:52.210Z,7.41
2023-01-31T17:09:23.433Z,7.64
2023-01-31T17:11:54.407Z,7.21
2023-01-31T17:14:23.066Z,7.42
2023-01-31T17:16:53.263Z,7.34
2023-01-31T17:19:23.557Z,7.32
2023-01-31T17:21:52.390Z,7.45
2023-01-31T17:24:23.663Z,7.52
2023-01-31T17:26:53.930Z,7.59
2023-01-31T17:29:23.344Z,7.57
2023-01-31T17:31:52.142Z,7.91
2023-01-31T17:34:22.120Z,7.84
2023-01-31T17:36:50.691Z,7.78
2023-01-31T17:39:19.263Z,7.57
2023-01-31T17:41:48.076Z,7.30
2023-01-31T17:44:16.848Z,7.42
2023-01-31T17:46:45.552Z,7.62
2023-01-31T17:49:14.325Z,7.30
2023-01-31T17:51:45.501Z,7.13
2023-01-31T17:54:14.119Z,7.22
2023-01-31T17:56:42.745Z,7.36
2023-01-31T17:59:21.672Z,7.59
2023-01-31T18:01:54.104Z,7.45
2023-01-31T18:04:22.723Z,7.64
2023-01-31T18:06:52.738Z,7.32
2023-01-31T18:09:21.374Z,7.50
2023-01-31T18:11:50.108Z,7.27
2023-01-31T18:14:18.727Z,7.56
2023-01-31T18:16:47.347Z,7.78
2023-01-31T18:19:15.876Z,7.89
2023-01-31T18:21:54.299Z,7.78
2023-01-31T18:24:24.835Z,8.00
2023-01-31T18:26:53.713Z,7.65
2023-01-31T18:29:25.443Z,7.11
2023-01-31T18:31:57.925Z,7.76
2023-01-31T18:34:26.837Z,7.84
2023-01-31T18:36:55.494Z,7.93
2023-01-31T18:39:25.412Z,7.74
2023-01-31T18:41:54.019Z,7.64
2023-01-31T18:44:22.618Z,8.12
2023-01-31T18:46:51.256Z,8.18
2023-01-31T18:49:20.230Z,8.02
2023-01-31T18:51:49.820Z,7.77
2023-01-31T18:54:18.429Z,7.56
2023-01-31T18:56:48.618Z,7.86
2023-01-31T18:59:17.221Z,7.83
2023-01-31T19:01:45.831Z,7.87
2023-01-31T19:04:14.510Z,8.14
2023-01-31T19:06:44.399Z,7.70
2023-01-31T19:09:13.716Z,7.96
2023-01-31T19:11:42.329Z,7.67
2023-01-31T19:14:15.075Z,7.71
2023-01-31T19:16:45.153Z,7.87
2023-01-31T19:19:14.229Z,7.90
2023-01-31T19:21:43.340Z,8.07
2023-01-31T19:24:15.372Z,7.71
2023-01-31T19:26:44.803Z,7.75
2023-01-31T19:29:16.741Z,7.95
2023-01-31T19:31:46.057Z,7.28
2023-01-31T19:34:14.823Z,7.29
2023-01-31T19:36:46.542Z,7.71
2023-01-31T19:39:15.487Z,7.77
2023-01-31T19:41:44.094Z,7.50
2023-01-31T19:44:14.046Z,7.45
2023-01-31T19:46:44.017Z,7.61
2023-01-31T19:49:12.834Z,8.11
2023-01-31T19:51:41.449Z,8.24
2023-01-31T19:54:14.075Z,7.85
2023-01-31T19:56:42.926Z,7.80
2023-01-31T19:59:11.918Z,7.91
2023-01-31T20:01:41.878Z,8.01
2023-01-31T20:04:10.473Z,7.83
2023-01-31T20:06:39.071Z,7.93
2023-01-31T20:09:08.238Z,7.92
2023-01-31T20:11:37.181Z,8.19
2023-01-31T20:14:06.563Z,7.52
2023-01-31T20:16:35.572Z,7.40
2023-01-31T20:19:06.722Z,7.97
2023-01-31T20:21:35.626Z,8.22
2023-01-31T20:24:04.373Z,8.00
2023-01-31T20:26:33.426Z,7.96
2023-01-31T20:29:02.069Z,7.99
2023-01-31T20:31:30.696Z,8.26
2023-01-31T20:33:59.276Z,8.22
2023-01-31T20:36:29.229Z,7.92
2023-01-31T20:38:57.842Z,7.82
2023-01-31T20:41:26.430Z,8.01
2023-01-31T20:43:54.983Z,8.36
2023-01-31T20:46:23.608Z,8.19
2023-01-31T20:48:52.869Z,8.44
2023-01-31T20:51:21.466Z,8.52
2023-01-31T20:53:51.410Z,8.13
2023-01-31T20:56:19.985Z,7.94
2023-01-31T20:58:48.566Z,7.95
2023-01-31T21:01:17.156Z,7.30
2023-01-31T21:03:45.781Z,7.44
2023-01-31T21:06:14.357Z,7.86
2023-01-31T21:08:44.230Z,7.15
2023-01-31T21:11:15.442Z,7.15
2023-01-31T21:13:44.393Z,7.20
2023-01-31T21:16:15.567Z,6.75
2023-01-31T21:18:45.093Z,7.63
2023-01-31T21:21:23.024Z,7.25
2023-01-31T21:23:53.088Z,6.70
2023-01-31T21:26:26.638Z,7.23
2023-01-31T21:28:55.524Z,7.90
2023-01-31T21:31:24.167Z,7.83
2023-01-31T21:33:53.403Z,7.92
2023-01-31T21:36:24.413Z,7.65
2023-01-31T21:38:53.158Z,7.84
2023-01-31T21:41:40.593Z,8.30
2023-01-31T21:44:09.289Z,7.83
2023-01-31T21:46:37.923Z,7.78
2023-01-31T21:49:06.826Z,8.04
2023-01-31T21:51:35.394Z,7.87
2023-01-31T21:54:04.043Z,7.20
2023-01-31T21:56:34.545Z,7.05
2023-01-31T21:59:03.191Z,7.35
2023-01-31T22:01:33.765Z,7.67
2023-01-31T22:04:02.670Z,8.14
2023-01-31T22:06:36.827Z,8.08
2023-01-31T22:09:07.330Z,8.43
2023-01-31T22:11:38.196Z,8.61
2023-01-31T22:14:08.689Z,8.05
2023-01-31T22:16:37.692Z,7.83
2023-01-31T22:19:06.438Z,7.63
2023-01-31T22:21:36.655Z,8.15
2023-01-31T22:24:07.256Z,7.57
2023-01-31T22:26:38.930Z,7.55
2023-01-31T22:29:09.577Z,7.95
2023-01-31T22:31:38.491Z,7.32
2023-01-31T22:34:08.822Z,7.56
2023-01-31T22:36:37.742Z,7.70
2023-01-31T22:39:06.841Z,7.87
2023-01-31T22:41:36.792Z,7.35
2023-01-31T22:44:05.576Z,7.89
2023-01-31T22:46:34.262Z,7.87
2023-01-31T22:49:02.921Z,7.56
2023-01-31T22:51:31.602Z,7.02
2023-01-31T22:54:00.397Z,7.65
2023-01-31T22:56:32.215Z,7.71
2023-01-31T22:59:04.116Z,8.11
2023-01-31T23:01:35.280Z,7.55
2023-01-31T23:04:05.601Z,7.95
2023-01-31T23:06:35.633Z,7.55
2023-01-31T23:09:04.681Z,7.83
2023-01-31T23:11:33.338Z,7.45
2023-01-31T23:14:03.501Z,7.53
2023-01-31T23:16:49.457Z,6.77
2023-01-31T23:19:18.121Z,7.44
2023-01-31T23:21:48.926Z,7.18
2023-01-31T23:24:19.131Z,7.67
2023-01-31T23:26:48.072Z,7.64
2023-01-31T23:29:18.143Z,7.37
2023-01-31T23:31:48.620Z,7.05
2023-01-31T23:34:17.260Z,7.19
2023-01-31T23:36:45.831Z,7.44
2023-01-31T23:39:14.542Z,7.64
2023-01-31T23:41:43.409Z,6.77
2023-01-31T23:44:12.020Z,7.14
2023-01-31T23:46:42.079Z,7.32
2023-01-31T23:49:10.693Z,7.09
2023-01-31T23:51:39.595Z,6.97
2023-01-31T23:54:08.215Z,7.10
2023-01-31T23:56:36.876Z,7.05
2023-01-31T23:59:05.543Z,6.92
